Chem Orion — V7GZ9 — position and weather

sailwx.info

Track history (hours):
 
Tides and Currents Weather Stations Pressure Air Temp Water Temp Dewpoint Dewpoint Depression Visibility Wind Speed Wind Dir Waves Ship Positions

Chem Orion

Last reported at 2018-May-14 02:19 UTC. Time now 2018-May-27 11:59 UTC.
Position N 01°29' E 104°33'.
Warning: this ship's position is 13 days out of date.

Length 125 m; draft 5.1 m.

Type: Ship (hazmat cat D). MMSI: 538002197.

Date/timePositionNaut miles runAvg speedWind from/ knotsBaromVisibWave heightAir tempDewpointWater temp
2018-May-14 02:19N 01°29' E 104°33'511.4
2018-May-14 01:53N 01°26' E 104°30'410.9
2018-May-14 01:30N 01°23' E 104°26'610.7
2018-May-14 00:57N 01°19' E 104°22'510.1
2018-May-14 00:28N 01°17' E 104°17'510.4
2018-May-14 00:00N 01°16' E 104°12'510.6
2018-May-13 23:30N 01°16' E 104°07'610.8
2018-May-13 22:59N 01°15' E 104°02'5 9.8
2018-May-13 22:30N 01°14' E 103°57'3 5.3
2018-May-13 21:59N 01°17' E 103°56'0 0.3
2018-May-13 21:23N 01°17' E 103°56'0 0.1
2018-May-13 20:58N 01°17' E 103°56'0 0.0
2018-May-13 20:23N 01°17' E 103°56'0 0.0
2018-May-13 19:59N 01°17' E 103°56'0 0.0
2018-May-13 19:26N 01°17' E 103°56'0 0.0
2018-May-13 18:50N 01°17' E 103°56'0 0.0
2018-May-13 18:29N 01°17' E 103°56'0 0.0
2018-May-13 17:58N 01°17' E 103°56'0 0.0
2018-May-13 17:29N 01°17' E 103°56'0 0.0
2018-May-13 16:59N 01°17' E 103°56'0 0.0
2018-May-13 16:29N 01°17' E 103°56'0 0.4
2018-May-13 15:59N 01°17' E 103°56'0 0.2
2018-May-13 15:26N 01°17' E 103°56'0 0.1
2018-May-13 14:59N 01°17' E 103°56'0 0.1
2018-May-13 14:29N 01°17' E 103°56'0 0.0
2018-May-13 13:56N 01°17' E 103°56'0 0.1
2018-May-13 13:29N 01°17' E 103°56'0 0.1
2018-May-13 12:56N 01°17' E 103°56'0 0.0
2018-May-13 12:20N 01°17' E 103°56'0 0.1
2018-May-13 11:56N 01°17' E 103°56'0 0.0
2018-May-13 11:29N 01°17' E 103°56'0 0.0
2018-May-13 10:56N 01°17' E 103°56'0 0.0
2018-May-13 10:23N 01°17' E 103°56'0 0.0
2018-May-13 09:59N 01°17' E 103°56'0 0.1
2018-May-13 09:26N 01°17' E 103°56'0 0.2
2018-May-13 08:59N 01°17' E 103°56'0 0.1
2018-May-13 08:19N 01°17' E 103°56'0 0.2
2018-May-13 07:58N 01°17' E 103°56'0 0.0
2018-May-13 07:22N 01°17' E 103°56'0 0.0
2018-May-13 06:52N 01°17' E 103°56'0 0.0
2018-May-13 06:29N 01°17' E 103°56'0 0.1
2018-May-13 06:00N 01°17' E 103°56'2 3.2
2018-May-13 05:29N 01°15' E 103°57'2 5.1
2018-May-13 05:00N 01°13' E 103°55'4 7.2
2018-May-13 04:30N 01°12' E 103°52'4 8.6
2018-May-13 04:00N 01°10' E 103°48'4 8.0
2018-May-13 03:29N 01°08' E 103°45'4 8.8
2018-May-13 02:59N 01°04' E 103°42'4 8.3
2018-May-13 02:30N 01°03' E 103°38'5 8.7
2018-May-13 01:59N 01°06' E 103°35'4 8.6
2018-May-13 01:31N 01°08' E 103°31'5 8.6
2018-May-13 00:58N 01°10' E 103°27'4 8.8
2018-May-13 00:29N 01°12' E 103°24'5 9.7
2018-May-12 23:59N 01°16' E 103°20'610.5
2018-May-12 23:24N 01°20' E 103°15'  
Track history (hours):
 
Tides and Currents Weather Stations Pressure Air Temp Water Temp Dewpoint Dewpoint Depression Visibility Wind Speed Wind Dir Waves Ship Positions

Chem Orion

Last reported at 2018-May-14 02:19 UTC. Time now 2018-May-27 11:59 UTC.
Position N 01°29' E 104°33'.
Warning: this ship's position is 13 days out of date.

Length 125 m; draft 5.1 m.

Type: Ship (hazmat cat D). MMSI: 538002197.

Date/timePositionNaut miles runAvg speedWind from/ knotsBaromVisibWave heightAir tempDewpointWater temp
2018-May-14 02:19N 01°29' E 104°33'511.4
2018-May-14 01:53N 01°26' E 104°30'410.9
2018-May-14 01:30N 01°23' E 104°26'610.7
2018-May-14 00:57N 01°19' E 104°22'510.1
2018-May-14 00:28N 01°17' E 104°17'510.4
2018-May-14 00:00N 01°16' E 104°12'510.6
2018-May-13 23:30N 01°16' E 104°07'610.8
2018-May-13 22:59N 01°15' E 104°02'5 9.8
2018-May-13 22:30N 01°14' E 103°57'3 5.3
2018-May-13 21:59N 01°17' E 103°56'0 0.3
2018-May-13 21:23N 01°17' E 103°56'0 0.1
2018-May-13 20:58N 01°17' E 103°56'0 0.0
2018-May-13 20:23N 01°17' E 103°56'0 0.0
2018-May-13 19:59N 01°17' E 103°56'0 0.0
2018-May-13 19:26N 01°17' E 103°56'0 0.0
2018-May-13 18:50N 01°17' E 103°56'0 0.0
2018-May-13 18:29N 01°17' E 103°56'0 0.0
2018-May-13 17:58N 01°17' E 103°56'0 0.0
2018-May-13 17:29N 01°17' E 103°56'0 0.0
2018-May-13 16:59N 01°17' E 103°56'0 0.0
2018-May-13 16:29N 01°17' E 103°56'0 0.4
2018-May-13 15:59N 01°17' E 103°56'0 0.2
2018-May-13 15:26N 01°17' E 103°56'0 0.1
2018-May-13 14:59N 01°17' E 103°56'0 0.1
2018-May-13 14:29N 01°17' E 103°56'0 0.0
2018-May-13 13:56N 01°17' E 103°56'0 0.1
2018-May-13 13:29N 01°17' E 103°56'0 0.1
2018-May-13 12:56N 01°17' E 103°56'0 0.0
2018-May-13 12:20N 01°17' E 103°56'0 0.1
2018-May-13 11:56N 01°17' E 103°56'0 0.0
2018-May-13 11:29N 01°17' E 103°56'0 0.0
2018-May-13 10:56N 01°17' E 103°56'0 0.0
2018-May-13 10:23N 01°17' E 103°56'0 0.0
2018-May-13 09:59N 01°17' E 103°56'0 0.1
2018-May-13 09:26N 01°17' E 103°56'0 0.2
2018-May-13 08:59N 01°17' E 103°56'0 0.1
2018-May-13 08:19N 01°17' E 103°56'0 0.2
2018-May-13 07:58N 01°17' E 103°56'0 0.0
2018-May-13 07:22N 01°17' E 103°56'0 0.0
2018-May-13 06:52N 01°17' E 103°56'0 0.0
2018-May-13 06:29N 01°17' E 103°56'0 0.1
2018-May-13 06:00N 01°17' E 103°56'2 3.2
2018-May-13 05:29N 01°15' E 103°57'2 5.1
2018-May-13 05:00N 01°13' E 103°55'4 7.2
2018-May-13 04:30N 01°12' E 103°52'4 8.6
2018-May-13 04:00N 01°10' E 103°48'4 8.0
2018-May-13 03:29N 01°08' E 103°45'4 8.8
2018-May-13 02:59N 01°04' E 103°42'4 8.3
2018-May-13 02:30N 01°03' E 103°38'5 8.7
2018-May-13 01:59N 01°06' E 103°35'4 8.6
2018-May-13 01:31N 01°08' E 103°31'5 8.6
2018-May-13 00:58N 01°10' E 103°27'4 8.8
2018-May-13 00:29N 01°12' E 103°24'5 9.7
2018-May-12 23:59N 01°16' E 103°20'610.5
2018-May-12 23:24N 01°20' E 103°15'  

Dump ship's entire track history